Date,TemperatureHighF,TemperatureAvgF,TemperatureLowF,DewpointHighF,DewpointAvgF,DewpointLowF,HumidityHigh,HumidityAvg,HumidityLow,PressureMaxIn,PressureMinIn,WindSpeedMaxMPH,WindSpeedAvgMPH,GustSpeedMaxMPH,PrecipitationSumIn
2013-8-1,85.3,75.4,67.6,70.5,66.5,59.8,96,76,48,29.85,29.76,16,2,16,0.05
2013-8-2,87.6,74.8,61.1,68.6,64.1,59.1,94,71,49,29.86,29.80,14,1,14,0.00
2013-8-3,84.0,75.1,70.1,72.2,68.6,65.3,94,81,62,29.88,29.80,10,1,11,0.07
2013-8-4,80.2,71.1,60.7,65.4,60.4,56.3,86,70,50,29.98,29.87,16,2,16,0.00
2013-8-5,82.3,70.7,58.6,64.0,60.7,56.8,98,73,50,29.98,29.82,8,0,9,0.00
2013-8-6,84.8,74.3,64.1,72.2,66.3,60.2,89,77,60,29.84,29.76,11,1,11,0.00
2013-8-7,88.4,78.6,70.2,77.0,73.3,68.6,96,85,66,29.79,29.71,12,1,12,0.00
2013-8-8,89.2,78.1,73.0,78.8,74.5,71.5,97,89,68,29.81,29.72,13,1,13,0.21
2013-8-9,83.0,75.7,72.4,75.5,72.5,70.1,97,90,72,29.88,29.74,11,1,11,0.34
2013-8-10,86.7,77.7,70.4,73.4,71.5,69.2,97,82,60,29.96,29.87,7,0,7,0.00
2013-8-11,90.7,78.8,69.5,75.6,71.2,68.4,97,79,55,29.94,29.86,13,1,14,0.00
2013-8-12,90.4,77.1,67.5,74.5,69.7,66.2,96,80,50,29.93,29.72,15,1,15,0.00
2013-8-13,80.2,73.8,61.7,74.0,65.5,52.7,93,76,57,29.91,29.69,17,3,17,0.00
2013-8-14,72.8,63.1,53.5,55.2,53.0,50.6,91,71,51,30.03,29.90,13,2,13,0.00
2013-8-15,76.5,64.6,51.5,59.3,55.9,49.9,96,75,53,30.04,29.94,11,0,11,0.01
2013-8-16,63.4,63.1,62.3,58.3,58.0,57.5,85,83,82,29.98,29.97,0,0,0,0.00
2013-8-19,87.5,80.5,70.6,70.2,66.0,61.5,89,63,47,29.99,29.91,10,1,10,0.00
2013-8-20,88.8,73.0,63.1,72.3,66.0,61.7,96,81,50,30.02,29.93,12,0,12,0.00
2013-8-21,86.2,76.8,70.2,77.4,70.8,66.8,92,82,67,30.01,29.90,9,0,9,0.05
2013-8-22,91.5,76.8,68.7,74.6,70.8,67.5,96,83,55,29.96,29.87,14,1,14,0.01
2013-8-23,87.7,76.0,67.9,72.6,69.4,64.6,98,81,56,30.00,29.89,11,1,11,0.14
2013-8-24,88.0,74.9,62.3,71.4,64.9,58.9,90,73,48,30.11,30.00,12,1,12,0.00
2013-8-25,89.3,75.8,61.6,69.5,65.2,60.1,96,73,45,30.18,30.07,11,0,11,0.00
2013-8-26,92.8,79.0,65.5,75.2,69.7,63.6,94,75,48,30.10,29.91,14,1,14,0.00
2013-8-27,94.0,83.8,74.5,78.0,74.8,71.6,92,75,57,29.91,29.79,12,2,12,0.00
2013-8-28,98.2,85.8,77.7,79.4,76.1,74.4,90,74,51,29.81,29.70,19,4,19,0.00
2013-8-29,86.5,77.7,72.0,75.4,72.6,70.4,96,85,67,29.90,29.79,10,1,10,0.00
2013-8-30,93.7,80.1,68.6,75.5,71.2,67.4,97,77,48,29.85,29.67,11,0,11,0.00
2013-8-31,92.9,79.3,71.2,80.4,74.0,69.4,96,84,66,29.72,29.58,17,2,17,0.57